Time;durP1;ratioP1;P1;durP2;ratioP2;P2;SDS_P1;SDS_P2;PMS_P1;PMS_P2;Temp;Humidity;BMP_temperature;BMP_pressure;BME280_temperature;BME280_humidity;BME280_pressure;Samples;Min_cycle;Max_cycle;Signal;HPM_P1;HPM_P2
2023/09/03 00:00:22;;;;;;;4.50;3.93;;;;;;;16.66;100.00;100824.09;5021797;28;20238;-67
2023/09/03 00:02:48;;;;;;;7.17;4.07;;;;;;;16.58;100.00;100819.44;5024473;28;20186;-66
2023/09/03 00:05:13;;;;;;;6.77;4.20;;;;;;;16.53;100.00;100820.66;5011700;28;20746;-67
2023/09/03 00:07:38;;;;;;;5.43;4.73;;;;;;;16.54;100.00;100820.53;5010304;28;20186;-67
2023/09/03 00:10:04;;;;;;;5.87;4.23;;;;;;;16.59;100.00;100828.84;5001962;28;20210;-66
2023/09/03 00:12:29;;;;;;;5.73;3.90;;;;;;;16.59;100.00;100825.44;5026629;28;20177;-67
2023/09/03 00:14:54;;;;;;;4.73;4.20;;;;;;;16.65;100.00;100832.00;5011541;28;20654;-67
2023/09/03 00:17:20;;;;;;;6.67;4.83;;;;;;;16.58;100.00;100829.81;5011840;28;20187;-65
2023/09/03 00:19:45;;;;;;;7.00;4.53;;;;;;;16.55;100.00;100830.00;5011665;28;20210;-66
2023/09/03 00:22:11;;;;;;;4.90;4.50;;;;;;;16.54;100.00;100833.53;5017882;28;20249;-67
2023/09/03 00:24:36;;;;;;;6.73;4.67;;;;;;;16.53;100.00;100839.66;5022674;28;20189;-66
2023/09/03 00:27:01;;;;;;;5.37;4.20;;;;;;;16.56;100.00;100831.69;5031416;28;20229;-66
2023/09/03 00:29:27;;;;;;;6.33;4.50;;;;;;;16.51;100.00;100840.69;5031638;28;20190;-66
2023/09/03 00:31:52;;;;;;;6.07;4.33;;;;;;;16.43;100.00;100836.88;5020002;28;20257;-67
2023/09/03 00:34:17;;;;;;;6.77;4.80;;;;;;;16.48;100.00;100846.94;5009938;28;20301;-67
2023/09/03 00:36:44;;;;;;;5.73;4.40;;;;;;;16.49;100.00;100847.78;5010306;28;20178;-67
2023/09/03 00:39:09;;;;;;;6.87;4.40;;;;;;;16.51;100.00;100845.91;5014222;28;20217;-66
2023/09/03 00:41:35;;;;;;;6.57;5.30;;;;;;;16.44;100.00;100832.50;5025753;28;20309;-67
2023/09/03 00:44:00;;;;;;;5.33;4.47;;;;;;;16.36;100.00;100842.56;5029836;28;20182;-67
2023/09/03 00:46:26;;;;;;;4.87;4.40;;;;;;;16.35;100.00;100840.91;5035206;28;20197;-67
2023/09/03 00:48:51;;;;;;;4.70;4.23;;;;;;;16.35;100.00;100844.34;5033958;28;20598;-67
2023/09/03 00:51:17;;;;;;;5.20;4.50;;;;;;;16.35;100.00;100844.34;5023896;28;20222;-67
2023/09/03 00:53:47;;;;;;;6.73;5.23;;;;;;;16.37;100.00;100841.63;5020592;28;20183;-67
2023/09/03 00:56:12;;;;;;;5.30;4.47;;;;;;;16.38;100.00;100838.94;5013135;28;20265;-67
2023/09/03 00:58:38;;;;;;;5.40;4.90;;;;;;;16.36;100.00;100840.81;5015288;28;20266;-67
2023/09/03 01:01:04;;;;;;;7.20;4.73;;;;;;;16.35;100.00;100839.16;5015048;28;20237;-67
2023/09/03 01:03:30;;;;;;;5.40;4.60;;;;;;;16.30;100.00;100836.84;5042204;28;20660;-67
2023/09/03 01:05:56;;;;;;;4.57;4.17;;;;;;;16.22;100.00;100836.53;5033930;28;20185;-67
2023/09/03 01:08:22;;;;;;;6.40;5.00;;;;;;;16.23;100.00;100839.97;5033322;28;20190;-67
2023/09/03 01:11:06;;;;;;;5.47;4.60;;;;;;;16.20;100.00;100838.41;5023967;28;20230;-67
2023/09/03 01:13:53;;;;;;;5.33;4.10;;;;;;;16.19;100.00;100834.16;5013347;28;20661;-67
2023/09/03 01:16:27;;;;;;;5.60;5.07;;;;;;;16.22;100.00;100833.94;5014416;28;20195;-66
2023/09/03 01:18:56;;;;;;;4.83;4.43;;;;;;;16.21;100.00;100834.03;5014853;28;20186;-66
2023/09/03 01:21:48;;;;;;;4.67;4.27;;;;;;;16.08;100.00;100832.25;5014517;28;20230;-66
2023/09/03 01:24:32;;;;;;;5.40;4.87;;;;;;;16.09;100.00;100831.34;5004314;28;20191;-66
2023/09/03 01:27:12;;;;;;;5.23;4.67;;;;;;;16.08;100.00;100836.63;5014491;28;20179;-66
2023/09/03 01:29:41;;;;;;;6.80;4.63;;;;;;;16.07;100.00;100838.38;5014561;28;20187;-66
2023/09/03 01:32:08;;;;;;;6.43;4.47;;;;;;;16.09;100.00;100840.91;5006240;28;20252;-66
2023/09/03 01:34:35;;;;;;;5.50;4.97;;;;;;;16.01;100.00;100845.75;5013858;28;20206;-66
2023/09/03 01:37:00;;;;;;;4.77;4.27;;;;;;;15.91;100.00;100842.91;5014422;28;20183;-66
2023/09/03 01:39:26;;;;;;;4.77;4.13;;;;;;;15.84;100.00;100845.09;5014125;28;20712;-66
2023/09/03 01:41:53;;;;;;;4.37;3.97;;;;;;;15.86;100.00;100847.59;5005941;28;20233;-66
2023/09/03 01:44:18;;;;;;;5.77;4.57;;;;;;;15.89;100.00;100855.16;5015012;28;20195;-66
2023/09/03 01:46:51;;;;;;;5.10;4.60;;;;;;;15.86;100.00;100858.78;5014229;28;20197;-66
2023/09/03 01:49:34;;;;;;;4.63;4.13;;;;;;;15.81;100.00;100858.22;5027912;28;20187;-66
2023/09/03 01:52:20;;;;;;;4.83;4.30;;;;;;;15.79;100.00;100863.50;5038371;28;20283;-66
2023/09/03 01:54:48;;;;;;;6.17;4.40;;;;;;;15.90;100.00;100872.38;5031711;28;20210;-66
2023/09/03 01:57:28;;;;;;;4.80;4.30;;;;;;;15.73;100.00;100873.47;5034016;28;20190;-66
2023/09/03 01:59:57;;;;;;;5.17;4.30;;;;;;;15.77;100.00;100874.91;5033504;28;20201;-67
2023/09/03 02:02:24;;;;;;;4.90;4.50;;;;;;;15.81;100.00;100881.56;5019384;28;20222;-67
2023/09/03 02:04:50;;;;;;;5.70;5.10;;;;;;;15.78;100.00;100885.19;5013567;28;20692;-66
2023/09/03 02:07:16;;;;;;;4.40;4.03;;;;;;;15.71;100.00;100890.88;5013781;28;20191;-65
2023/09/03 02:09:41;;;;;;;5.20;4.70;;;;;;;15.73;100.00;100889.03;5013605;28;20206;-67
2023/09/03 02:12:07;;;;;;;6.67;4.57;;;;;;;15.73;100.00;100899.41;5018663;28;20221;-67
2023/09/03 02:14:32;;;;;;;5.03;4.50;;;;;;;15.68;100.00;100898.84;5013207;28;20205;-66
2023/09/03 02:16:58;;;;;;;6.40;4.10;;;;;;;15.63;100.00;100896.56;5013363;28;20607;-67
2023/09/03 02:19:23;;;;;;;5.73;4.30;;;;;;;15.61;100.00;100894.03;5013840;28;20210;-67
2023/09/03 02:21:49;;;;;;;11.63;4.63;;;;;;;15.61;100.00;100893.22;5026300;28;20238;-66
2023/09/03 02:24:15;;;;;;;5.47;4.57;;;;;;;15.53;100.00;100875.56;5026103;28;20182;-66
2023/09/03 02:26:44;;;;;;;6.00;4.10;;;;;;;15.53;100.00;100882.47;5033159;28;20181;-66
2023/09/03 02:29:10;;;;;;;4.80;3.77;;;;;;;15.56;100.00;100883.13;5031783;28;20216;-67
2023/09/03 02:31:36;;;;;;;6.53;4.30;;;;;;;15.55;100.00;100902.19;5034699;28;20245;-66
2023/09/03 02:34:05;;;;;;;6.70;4.70;;;;;;;15.53;100.00;100901.47;5036059;28;20206;-66
2023/09/03 02:36:33;;;;;;;7.87;3.97;;;;;;;15.58;100.00;100909.81;5031627;28;20545;-67
2023/09/03 02:39:03;;;;;;;3.90;3.50;;;;;;;15.58;100.00;100914.97;5031516;28;20645;-66
2023/09/03 02:41:31;;;;;;;5.80;4.17;;;;;;;15.53;100.00;100914.44;5033765;28;20658;-66
2023/09/03 02:43:58;;;;;;;4.83;3.50;;;;;;;15.53;100.00;100916.19;5036674;28;20266;-67
2023/09/03 02:46:24;;;;;;;3.90;3.53;;;;;;;15.53;100.00;100913.59;5032291;28;20218;-67
2023/09/03 02:48:49;;;;;;;4.83;3.50;;;;;;;15.52;100.00;100899.81;5032997;28;20216;-66
2023/09/03 02:51:15;;;;;;;3.90;3.40;;;;;;;15.51;100.00;100905.91;5031696;28;20267;-65
2023/09/03 02:53:42;;;;;;;5.17;3.43;;;;;;;15.49;100.00;100906.03;5038958;28;20247;-65
2023/09/03 02:56:08;;;;;;;3.53;3.23;;;;;;;15.52;100.00;100910.19;5032041;28;20194;-67
2023/09/03 02:58:33;;;;;;;4.13;3.30;;;;;;;15.52;100.00;100912.78;5032577;28;20192;-66
2023/09/03 03:01:06;;;;;;;5.20;3.40;;;;;;;15.54;100.00;100912.66;5021701;28;20614;-66
2023/09/03 03:03:31;;;;;;;5.00;3.30;;;;;;;15.61;100.00;100906.19;5020078;28;20185;-66
2023/09/03 03:05:56;;;;;;;3.50;2.90;;;;;;;15.59;100.00;100897.66;5012000;28;20179;-66
2023/09/03 03:08:22;;;;;;;4.10;3.23;;;;;;;15.60;100.00;100907.09;5012933;28;20622;-66
2023/09/03 03:10:47;;;;;;;3.93;3.17;;;;;;;15.60;100.00;100907.09;5020694;28;20225;-66
2023/09/03 03:13:12;;;;;;;3.83;3.10;;;;;;;15.55;100.00;100906.56;5022054;28;20212;-66
2023/09/03 03:15:37;;;;;;;4.60;2.90;;;;;;;15.57;100.00;100907.31;5011654;28;20202;-65
2023/09/03 03:18:03;;;;;;;3.90;3.00;;;;;;;15.65;100.00;100905.91;5012469;28;20182;-65
2023/09/03 03:20:29;;;;;;;7.63;3.07;;;;;;;15.65;100.00;100905.91;5005645;28;20229;-66
2023/09/03 03:22:54;;;;;;;6.97;3.03;;;;;;;15.68;100.00;100914.41;5024134;28;20242;-66
2023/09/03 03:25:19;;;;;;;5.07;3.07;;;;;;;15.67;100.00;100910.16;5012269;28;20183;-66
2023/09/03 03:27:45;;;;;;;3.80;2.90;;;;;;;15.67;100.00;100913.56;5012192;28;20182;-66
2023/09/03 03:30:10;;;;;;;5.77;3.07;;;;;;;15.66;100.00;100922.28;4984407;28;20265;-66
2023/09/03 03:32:35;;;;;;;6.53;3.13;;;;;;;15.66;100.00;100924.88;5026738;28;20187;-66
2023/09/03 03:35:00;;;;;;;3.87;2.97;;;;;;;15.68;100.00;100927.34;5011797;28;20213;-66
2023/09/03 03:37:26;;;;;;;3.10;2.80;;;;;;;15.72;100.00;100927.06;5012473;28;20764;-66
2023/09/03 03:39:51;;;;;;;6.83;2.80;;;;;;;15.72;100.00;100927.06;5011893;28;20182;-66
2023/09/03 03:42:16;;;;;;;3.90;3.03;;;;;;;15.69;100.00;100919.50;5035558;28;20334;-66
2023/09/03 03:44:42;;;;;;;3.40;3.10;;;;;;;15.72;100.00;100921.06;5031193;28;20182;-66
2023/09/03 03:47:07;;;;;;;7.57;3.53;;;;;;;15.73;100.00;100925.34;5031986;28;20192;-66
2023/09/03 03:49:33;;;;;;;3.87;3.40;;;;;;;15.72;100.00;100919.28;5031885;28;20232;-67
2023/09/03 03:51:58;;;;;;;4.37;2.80;;;;;;;15.63;100.00;100928.50;5020525;28;20218;-67
2023/09/03 03:54:23;;;;;;;8.77;3.00;;;;;;;15.72;100.00;100921.88;5010065;28;20574;-66
2023/09/03 03:56:48;;;;;;;3.97;2.80;;;;;;;15.70;100.00;100921.16;5012130;28;20183;-67
2023/09/03 03:59:14;;;;;;;3.43;2.93;;;;;;;15.70;100.00;100925.50;5011730;28;20240;-66
2023/09/03 04:01:39;;;;;;;4.27;2.87;;;;;;;15.61;100.00;100927.75;5014301;28;20261;-66
2023/09/03 04:04:04;;;;;;;5.03;3.07;;;;;;;15.63;100.00;100931.09;5010184;28;20587;-66
2023/09/03 04:06:31;;;;;;;3.90;3.60;;;;;;;15.66;100.00;100937.84;5012016;28;20175;-66
2023/09/03 04:08:56;;;;;;;4.70;3.80;;;;;;;15.69;100.00;100947.19;5011844;28;20642;-66
2023/09/03 04:11:23;;;;;;;4.40;3.10;;;;;;;15.73;100.00;100948.69;5014570;28;20221;-67
2023/09/03 04:13:48;;;;;;;3.77;3.10;;;;;;;15.75;100.00;100958.03;5021982;28;20186;-67
2023/09/03 04:16:17;;;;;;;4.70;3.27;;;;;;;15.76;100.00;100957.06;5035448;28;20239;-67
2023/09/03 04:18:44;;;;;;;3.60;3.30;;;;;;;15.71;100.00;100963.50;5035721;28;20221;-67
2023/09/03 04:21:10;;;;;;;4.77;3.30;;;;;;;15.69;100.00;100966.19;5024878;28;20237;-67
2023/09/03 04:23:35;;;;;;;4.40;3.70;;;;;;;15.71;100.00;100966.91;5022177;28;20498;-67
2023/09/03 04:26:01;;;;;;;4.13;3.47;;;;;;;15.52;100.00;100967.22;5015381;28;20201;-67
2023/09/03 04:28:26;;;;;;;5.40;4.07;;;;;;;15.46;100.00;100960.66;5015350;28;20206;-67
2023/09/03 04:30:56;;;;;;;5.17;3.40;;;;;;;15.46;100.00;100960.66;5018754;28;20275;-67
2023/09/03 04:33:22;;;;;;;5.90;3.73;;;;;;;15.55;100.00;100966.19;5043633;28;20185;-67
2023/09/03 04:35:47;;;;;;;4.83;3.67;;;;;;;15.59;100.00;100963.34;5034648;28;20210;-67
2023/09/03 04:38:12;;;;;;;4.07;3.40;;;;;;;15.62;100.00;100951.94;5029322;28;20236;-67
2023/09/03 04:40:38;;;;;;;4.43;3.43;;;;;;;15.66;100.00;100956.00;5024992;28;20260;-67
2023/09/03 04:43:04;;;;;;;5.20;3.60;;;;;;;15.67;100.00;100942.09;5025962;28;20206;-67
2023/09/03 04:45:30;;;;;;;4.73;3.30;;;;;;;15.61;100.00;100943.31;5015212;28;20601;-67
2023/09/03 04:47:56;;;;;;;4.40;4.00;;;;;;;15.69;100.00;100949.78;5015161;28;20170;-66
2023/09/03 04:50:22;;;;;;;5.10;3.53;;;;;;;15.64;100.00;100945.72;5010433;28;20286;-67
2023/09/03 04:52:48;;;;;;;3.83;3.40;;;;;;;15.68;100.00;100959.34;5020984;28;20317;-66
2023/09/03 04:55:14;;;;;;;4.00;3.60;;;;;;;15.72;100.00;100965.16;5034225;28;20201;-66
2023/09/03 04:57:39;;;;;;;5.43;3.80;;;;;;;15.76;100.00;100964.84;5035150;28;20347;-67
2023/09/03 05:00:05;;;;;;;3.73;3.37;;;;;;;15.76;100.00;100972.63;5024543;28;20205;-67
2023/09/03 05:02:31;;;;;;;4.63;3.50;;;;;;;15.81;100.00;100981.00;5029559;28;20583;-66
2023/09/03 05:04:57;;;;;;;5.60;3.90;;;;;;;15.85;100.00;100978.22;5013523;28;20178;-67
2023/09/03 05:07:23;;;;;;;4.70;3.30;;;;;;;15.87;100.00;100991.94;5015011;28;20210;-66
2023/09/03 05:09:51;;;;;;;4.60;3.63;;;;;;;15.89;100.00;100985.72;5013338;28;20229;-67
2023/09/03 05:12:17;;;;;;;3.63;3.30;;;;;;;15.98;100.00;100992.91;5020175;28;20693;-67
2023/09/03 05:14:42;;;;;;;4.67;3.60;;;;;;;15.97;100.00;100999.03;5013180;28;20301;-66
2023/09/03 05:17:07;;;;;;;3.73;3.10;;;;;;;15.92;100.00;100997.66;5014754;28;20187;-66
2023/09/03 05:19:33;;;;;;;3.57;2.90;;;;;;;16.03;100.00;100984.84;5014914;28;20186;-66
2023/09/03 05:21:58;;;;;;;3.30;3.00;;;;;;;16.13;100.00;100979.91;5021864;28;20237;-67
2023/09/03 05:24:23;;;;;;;5.77;3.30;;;;;;;16.20;100.00;100988.97;5034201;28;20622;-67
2023/09/03 05:26:49;;;;;;;6.43;2.93;;;;;;;16.33;100.00;100985.56;5034238;28;20190;-67
2023/09/03 05:29:14;;;;;;;9.87;3.60;;;;;;;16.43;100.00;100989.22;5034440;28;20692;-67
2023/09/03 05:31:40;;;;;;;3.27;2.97;;;;;;;16.57;100.00;100980.53;5010176;28;20246;-67
2023/09/03 05:34:05;;;;;;;4.60;3.10;;;;;;;16.64;100.00;100994.78;5004173;28;20543;-67
2023/09/03 05:36:30;;;;;;;4.07;3.40;;;;;;;16.72;100.00;101000.31;5014557;28;20317;-66
2023/09/03 05:38:55;;;;;;;5.73;3.40;;;;;;;16.77;100.00;101002.63;5006310;28;20198;-66
2023/09/03 05:41:21;;;;;;;3.27;2.97;;;;;;;16.93;100.00;101008.47;5013510;28;20287;-67
2023/09/03 05:43:46;;;;;;;4.07;3.20;;;;;;;17.10;100.00;101015.16;5019512;28;20266;-66
2023/09/03 05:46:11;;;;;;;3.00;2.80;;;;;;;17.29;100.00;101020.84;5012654;28;20186;-66
2023/09/03 05:48:37;;;;;;;4.13;3.03;;;;;;;17.38;100.00;101023.66;5014523;28;20261;-65
2023/09/03 05:51:05;;;;;;;4.70;3.33;;;;;;;17.55;100.00;101017.28;5020121;28;20272;-66
2023/09/03 05:53:33;;;;;;;4.47;2.60;;;;;;;17.58;100.00;101019.66;5041171;28;20186;-67
2023/09/03 05:56:10;;;;;;;2.37;2.17;;;;;;;17.48;100.00;101023.84;5031651;28;20201;-66
2023/09/03 05:58:35;;;;;;;5.10;2.60;;;;;;;17.66;100.00;101034.75;5033992;28;20189;-66
2023/09/03 06:01:09;;;;;;;6.03;3.00;;;;;;;17.84;100.00;101034.41;5016916;28;20222;-66
2023/09/03 06:03:35;;;;;;;5.17;2.57;;;;;;;18.12;100.00;101024.66;5020882;28;20187;-67
2023/09/03 06:06:02;;;;;;;7.73;2.60;;;;;;;18.30;100.00;101020.72;5013137;28;20259;-67
2023/09/03 06:08:28;;;;;;;3.73;2.20;;;;;;;18.29;100.00;101026.88;5014047;28;20197;-67
2023/09/03 06:10:56;;;;;;;2.37;1.60;;;;;;;18.53;100.00;101031.22;5016655;28;20229;-66
2023/09/03 06:13:25;;;;;;;4.23;2.53;;;;;;;18.78;100.00;101045.91;5020307;28;20241;-67
2023/09/03 06:15:50;;;;;;;2.47;2.27;;;;;;;18.92;100.00;101038.88;5031620;28;20566;-67
2023/09/03 06:18:16;;;;;;;1.97;1.77;;;;;;;18.94;100.00;101045.63;5032172;28;20185;-67
2023/09/03 06:20:41;;;;;;;3.23;2.00;;;;;;;18.95;100.00;101043.84;5022858;28;20229;-67
2023/09/03 06:23:07;;;;;;;2.50;2.10;;;;;;;19.02;100.00;101053.69;5011461;28;20310;-67
2023/09/03 06:25:32;;;;;;;4.33;2.13;;;;;;;19.12;100.00;101063.44;5011907;28;20639;-68
2023/09/03 06:27:57;;;;;;;4.20;2.23;;;;;;;19.21;100.00;101065.31;5012039;28;20190;-67
2023/09/03 06:30:23;;;;;;;2.77;2.27;;;;;;;19.29;100.00;101065.59;5005118;28;20225;-67
2023/09/03 06:32:48;;;;;;;6.33;2.47;;;;;;;19.40;100.00;101067.38;5026318;28;20660;-67
2023/09/03 06:35:14;;;;;;;2.80;2.20;;;;;;;19.50;100.00;101068.31;5012112;28;20194;-67
2023/09/03 06:37:39;;;;;;;3.77;2.30;;;;;;;19.60;100.00;101071.06;5013095;28;20185;-67
2023/09/03 06:40:05;;;;;;;3.80;2.20;;;;;;;19.66;100.00;101075.00;5003659;28;20183;-67
2023/09/03 06:42:31;;;;;;;6.17;2.40;;;;;;;19.74;100.00;101079.59;5036607;28;20182;-67
2023/09/03 06:44:56;;;;;;;3.13;2.27;;;;;;;19.88;100.00;101091.59;5030938;28;20524;-67
2023/09/03 06:47:22;;;;;;;2.40;2.07;;;;;;;19.75;100.00;101095.13;5032974;28;20269;-67
2023/09/03 06:49:50;;;;;;;4.77;2.37;;;;;;;19.80;100.00;101093.00;5032517;28;20595;-67
2023/09/03 06:52:15;;;;;;;3.47;2.30;;;;;;;19.64;100.00;101098.56;5004839;28;20309;-68
2023/09/03 06:54:41;;;;;;;4.17;2.13;;;;;;;19.86;100.00;101094.34;5012394;28;20298;-67
2023/09/03 06:57:06;;;;;;;4.37;2.27;;;;;;;19.81;100.00;101101.69;5011897;28;20516;-67
2023/09/03 06:59:31;;;;;;;2.97;2.60;;;;;;;20.08;100.00;101103.94;5011362;28;20568;-66
2023/09/03 07:01:56;;;;;;;2.50;2.30;;;;;;;20.42;100.00;101109.06;5031042;28;20235;-67
2023/09/03 07:04:22;;;;;;;3.10;2.27;;;;;;;20.71;100.00;101102.44;5032768;28;20603;-67
2023/09/03 07:06:47;;;;;;;5.60;2.37;;;;;;;21.10;100.00;101100.97;5032481;28;20185;-67
2023/09/03 07:09:12;;;;;;;6.43;2.70;;;;;;;21.15;100.00;101099.72;5027706;28;20210;-67
2023/09/03 07:11:37;;;;;;;4.93;2.60;;;;;;;21.62;100.00;101096.69;5001783;28;20215;-66
2023/09/03 07:14:03;;;;;;;3.60;2.10;;;;;;;22.30;100.00;101101.28;5011672;28;20656;-67
2023/09/03 07:16:29;;;;;;;2.80;2.60;;;;;;;23.23;100.00;101104.31;5012713;28;20306;-67
2023/09/03 07:18:54;;;;;;;5.23;2.53;;;;;;;23.59;100.00;101108.91;5012356;28;20192;-67
2023/09/03 07:21:19;;;;;;;5.27;2.70;;;;;;;23.57;100.00;101118.72;5012031;28;20283;-66
2023/09/03 07:23:45;;;;;;;4.43;2.73;;;;;;;23.87;100.00;101129.97;5017720;28;20646;-67
2023/09/03 07:26:10;;;;;;;3.45;2.40;;;;;;;23.42;100.00;101128.88;5010880;28;20282;-67
2023/09/03 07:28:37;;;;;;;5.78;3.38;;;;;;;24.02;100.00;101129.34;5011079;28;20175;-67
2023/09/03 07:31:02;;;;;;;4.05;3.65;;;;;;;23.89;100.00;101134.09;4989591;28;20238;-67
2023/09/03 07:33:27;;;;;;;4.20;3.80;;;;;;;23.74;100.00;101135.53;5021970;28;20185;-66
2023/09/03 07:35:53;;;;;;;5.10;4.05;;;;;;;23.77;100.00;101137.88;5031366;28;20190;-66
2023/09/03 07:38:18;;;;;;;6.53;3.65;;;;;;;24.22;100.00;101133.66;5031533;28;20189;-66
2023/09/03 07:40:43;;;;;;;6.03;4.50;;;;;;;24.48;100.00;101150.34;5021561;28;20229;-67
2023/09/03 07:43:08;;;;;;;5.05;4.20;;;;;;;24.69;100.00;101140.56;5022113;28;20650;-67
2023/09/03 07:45:34;;;;;;;5.13;4.50;;;;;;;24.58;100.00;101139.75;5011736;28;20239;-67
2023/09/03 07:47:59;;;;;;;6.72;4.55;;;;;;;24.64;100.00;101148.88;5009499;28;20588;-67
2023/09/03 07:50:26;;;;;;;5.38;4.47;;;;;;;25.13;100.00;101151.94;5007905;28;20235;-67
2023/09/03 07:52:51;;;;;;;5.18;4.65;;;;;;;24.94;100.00;101157.38;5044031;28;20693;-67
2023/09/03 07:55:17;;;;;;;6.72;6.10;;;;;;;24.34;100.00;101164.03;5031447;28;20204;-66
2023/09/03 07:57:42;;;;;;;6.80;6.10;;;;;;;24.32;100.00;101163.34;5031633;28;20841;-66
2023/09/03 08:00:08;;;;;;;6.45;5.95;;;;;;;24.29;100.00;101161.84;5020229;28;20198;-66
2023/09/03 08:02:33;;;;;;;6.78;5.65;;;;;;;24.40;100.00;101163.44;5026298;28;20214;-66
2023/09/03 08:04:58;;;;;;;6.30;5.68;;;;;;;24.20;100.00;101162.75;5010030;28;20266;-66
2023/09/03 08:07:24;;;;;;;5.72;5.22;;;;;;;23.63;100.00;101168.91;5011976;28;20178;-66
2023/09/03 08:09:50;;;;;;;6.15;5.25;;;;;;;23.75;100.00;101166.09;5011955;28;20186;-66
2023/09/03 08:12:15;;;;;;;7.05;6.28;;;;;;;23.56;100.00;101167.81;5019391;28;20220;-66
2023/09/03 08:14:42;;;;;;;6.03;5.40;;;;;;;24.10;100.00;101175.09;5031019;28;20202;-66
2023/09/03 08:17:07;;;;;;;7.03;5.43;;;;;;;24.61;100.00;101164.94;5031512;28;20576;-66
2023/09/03 08:19:34;;;;;;;6.30;5.38;;;;;;;24.66;100.00;101170.63;5031570;28;20186;-66
2023/09/03 08:22:00;;;;;;;5.88;5.38;;;;;;;25.07;100.00;101181.50;5019809;28;20225;-66
2023/09/03 08:24:26;;;;;;;7.10;6.43;;;;;;;25.54;100.00;101176.88;5011904;28;20190;-66
2023/09/03 08:26:52;;;;;;;6.22;5.43;;;;;;;25.51;100.00;101177.22;5011722;28;20182;-66
2023/09/03 08:29:17;;;;;;;7.65;6.93;;;;;;;25.07;100.00;101176.22;5012102;28;20206;-65
2023/09/03 08:31:42;;;;;;;6.38;5.80;;;;;;;24.97;100.00;101178.94;5027983;28;20279;-67
2023/09/03 08:34:09;;;;;;;6.88;6.28;;;;;;;24.41;100.00;101178.25;5029555;28;20193;-67
2023/09/03 08:36:34;;;;;;;8.85;6.57;;;;;;;25.06;100.00;101179.84;5031440;28;20209;-67
2023/09/03 08:39:01;;;;;;;5.78;5.28;;;;;;;25.77;100.00;101183.25;5020877;28;20257;-67
2023/09/03 08:41:27;;;;;;;7.13;6.43;;;;;;;26.18;100.00;101177.34;5020547;28;20230;-67
2023/09/03 08:43:56;;;;;;;6.43;5.93;;;;;;;26.81;100.00;101193.66;5015918;28;20318;-67
2023/09/03 08:46:25;;;;;;;9.38;5.13;;;;;;;27.57;96.98;101188.16;5011190;28;20575;-67
2023/09/03 08:48:51;;;;;;;6.70;6.13;;;;;;;27.10;98.62;101194.16;5011434;28;20183;-67
2023/09/03 08:51:17;;;;;;;6.10;5.50;;;;;;;27.73;96.47;101189.13;5011873;28;20303;-67
2023/09/03 08:53:43;;;;;;;6.13;5.60;;;;;;;27.22;92.46;101198.13;5027519;28;20552;-67
2023/09/03 08:56:09;;;;;;;6.22;5.68;;;;;;;28.08;87.63;101187.00;5030354;28;20201;-67
2023/09/03 08:58:34;;;;;;;5.80;5.40;;;;;;;29.08;81.48;101194.13;5032598;28;20262;-67
2023/09/03 09:00:59;;;;;;;6.28;5.68;;;;;;;29.73;71.91;101196.28;5018443;28;20304;-66
2023/09/03 09:03:29;;;;;;;5.88;5.38;;;;;;;30.09;69.14;101201.69;5023146;28;20182;-66
2023/09/03 09:05:55;;;;;;;5.25;4.85;;;;;;;29.16;75.41;101193.22;5014194;28;20183;-67
2023/09/03 09:08:23;;;;;;;6.32;5.85;;;;;;;27.99;85.12;101191.50;5014736;28;20528;-66
2023/09/03 09:10:51;;;;;;;6.68;5.72;;;;;;;27.69;88.03;101184.16;5010417;28;20314;-66
2023/09/03 09:13:21;;;;;;;6.35;5.82;;;;;;;27.62;88.08;101185.84;5013449;28;20191;-67
2023/09/03 09:15:46;;;;;;;6.72;5.30;;;;;;;27.61;91.78;101184.22;5013759;28;20202;-66
2023/09/03 09:18:12;;;;;;;5.53;5.03;;;;;;;28.59;86.99;101186.53;5015197;28;20275;-67
2023/09/03 09:20:39;;;;;;;6.50;6.00;;;;;;;28.63;79.91;101195.78;5009413;28;20312;-67
2023/09/03 09:23:05;;;;;;;6.90;6.35;;;;;;;28.32;81.52;101197.47;5026144;28;20269;-67
2023/09/03 09:25:30;;;;;;;6.07;5.57;;;;;;;28.21;83.72;101199.66;5031764;28;20653;-67
2023/09/03 09:27:56;;;;;;;6.00;5.60;;;;;;;28.05;82.86;101185.53;5033060;28;20181;-68
2023/09/03 09:30:25;;;;;;;6.60;5.28;;;;;;;28.28;85.45;101190.03;5023901;28;20270;-67
2023/09/03 09:33:05;;;;;;;5.82;5.35;;;;;;;28.57;76.00;101185.91;5027088;28;20214;-65
2023/09/03 09:35:30;;;;;;;6.03;5.53;;;;;;;28.92;75.25;101181.84;5013990;28;20293;-66
2023/09/03 09:38:06;;;;;;;4.80;4.40;;;;;;;29.72;69.59;101198.13;5014122;28;20612;-66
2023/09/03 09:40:31;;;;;;;5.63;5.13;;;;;;;29.74;71.18;101190.00;5012095;28;20320;-65
2023/09/03 09:42:59;;;;;;;6.18;5.68;;;;;;;28.86;75.19;101193.16;5033216;28;20261;-67
2023/09/03 09:45:25;;;;;;;6.82;6.22;;;;;;;29.14;75.97;101188.09;5033804;28;20638;-67
2023/09/03 09:48:07;;;;;;;6.70;6.05;;;;;;;28.21;80.79;101192.56;5036552;28;20200;-67
2023/09/03 09:50:35;;;;;;;5.78;5.30;;;;;;;28.40;82.93;101186.00;5021702;28;20295;-66
2023/09/03 09:53:01;;;;;;;5.30;4.90;;;;;;;28.22;84.83;101182.81;5025031;28;20270;-67
2023/09/03 09:55:32;;;;;;;4.78;4.35;;;;;;;28.36;89.12;101181.25;5013350;28;20312;-66
2023/09/03 09:57:59;;;;;;;6.40;5.90;;;;;;;28.75;81.85;101185.63;5013818;28;20706;-67
2023/09/03 10:00:33;;;;;;;5.32;4.93;;;;;;;28.92;74.40;101187.13;5009686;28;20240;-65
2023/09/03 10:02:58;;;;;;;5.65;5.25;;;;;;;27.58;87.05;101194.28;5044713;28;20664;-65
2023/09/03 10:05:23;;;;;;;5.57;5.15;;;;;;;26.88;92.80;101194.66;5031097;28;20190;-66
2023/09/03 10:07:49;;;;;;;6.25;5.75;;;;;;;25.94;99.40;101199.97;5033150;28;20178;-66
2023/09/03 10:10:15;;;;;;;8.18;5.85;;;;;;;25.90;100.00;101195.19;5022916;28;20292;-65
2023/09/03 10:12:40;;;;;;;5.82;5.32;;;;;;;26.45;97.68;101183.38;5026418;28;20190;-65
2023/09/03 10:15:06;;;;;;;6.13;5.60;;;;;;;27.91;89.03;101183.59;5013499;28;20206;-66
2023/09/03 10:17:33;;;;;;;5.40;4.90;;;;;;;28.90;72.52;101196.25;5013800;28;20266;-67
2023/09/03 10:20:04;;;;;;;5.20;4.80;;;;;;;27.80;84.29;101188.25;5013360;28;20582;-67
2023/09/03 10:22:30;;;;;;;5.65;4.97;;;;;;;28.73;77.25;101193.75;5001964;28;20237;-67
2023/09/03 10:25:04;;;;;;;4.40;4.00;;;;;;;29.12;66.43;101198.03;5011730;28;20221;-66
2023/09/03 10:27:35;;;;;;;5.13;4.63;;;;;;;28.25;79.29;101201.81;5013627;28;20229;-66
2023/09/03 10:30:04;;;;;;;5.68;4.32;;;;;;;27.93;81.94;101193.00;5013578;28;20236;-67
2023/09/03 10:32:31;;;;;;;5.70;4.90;;;;;;;27.66;84.81;101203.00;5021989;28;20217;-66
2023/09/03 10:34:57;;;;;;;4.78;4.38;;;;;;;26.51;88.03;101200.38;5046282;28;20193;-67
2023/09/03 10:37:35;;;;;;;4.38;4.05;;;;;;;26.56;91.24;101203.34;5033417;28;20189;-67
2023/09/03 10:40:21;;;;;;;4.32;3.80;;;;;;;26.31;93.03;101197.16;5031624;28;20261;-66
2023/09/03 10:42:47;;;;;;;5.13;4.72;;;;;;;25.85;93.89;101200.94;5002183;28;20573;-65
2023/09/03 10:45:14;;;;;;;4.55;4.15;;;;;;;25.84;95.69;101199.28;5011288;28;20233;-65
2023/09/03 10:47:59;;;;;;;5.22;4.72;;;;;;;25.31;98.83;101187.91;5012781;28;20710;-67
2023/09/03 10:50:44;;;;;;;4.13;3.92;;;;;;;25.65;94.62;101189.81;4997801;28;20221;-66
2023/09/03 10:53:39;;;;;;;4.03;3.70;;;;;;;25.02;96.27;101196.06;5022830;28;20183;-67
2023/09/03 10:56:10;;;;;;;4.80;4.40;;;;;;;24.94;98.66;101186.31;5012619;28;20550;-65
2023/09/03 10:58:53;;;;;;;3.90;3.60;;;;;;;25.00;100.00;101185.72;5013203;28;20191;-65
2023/09/03 11:01:26;;;;;;;3.90;3.40;;;;;;;25.09;95.82;101195.34;5012156;28;20728;-67
2023/09/03 11:03:53;;;;;;;2.85;2.65;;;;;;;24.80;93.60;101195.56;5017265;28;20186;-66
2023/09/03 11:06:20;;;;;;;7.70;3.03;;;;;;;25.16;90.17;101203.44;5010947;28;20189;-66
2023/09/03 11:09:10;;;;;;;6.25;2.78;;;;;;;24.92;93.76;101197.00;5012812;28;20179;-65
2023/09/03 11:11:38;;;;;;;3.90;3.47;;;;;;;25.40;93.89;101199.34;5008984;28;20236;-66
2023/09/03 11:14:06;;;;;;;3.83;3.53;;;;;;;25.24;96.88;101194.78;5015299;28;20175;-66
2023/09/03 11:16:36;;;;;;;4.10;3.70;;;;;;;25.39;94.16;101190.66;5011197;28;20182;-66
2023/09/03 11:19:04;;;;;;;3.22;3.03;;;;;;;25.12;88.46;101196.84;5011613;28;20321;-67